Salina, KS (67402)

11:08 PM CDT on July 30, 2016 (GMT -0500)
Central Salina | | Change Station

Elev 1243 ft 38.82 °N, 97.62 °W | Updated 2 seconds ago

Clear
Clear
79.0 °F
Feels Like 82 °F
N
4.7
Wind Variable Wind from South
Gusts 7.4 mph

Today
High -- | Low -- °F
--% Chance of Precip.
Yesterday
High -- | Low -- °F
Precip. -- in
Pressure 29.89 in
Visibility 10.0 miles
Clouds Clear
Heat Index 82 °F
Dew Point 70 °F
Humidity 74%
Rainfall 0.00 in
Snow Depth Not available.
6:30 AM 8:42 PM
Waning Crescent, 9% visible
METAR KSLN 310353Z 14007KT 10SM CLR 26/21 A2994 RMK AO2 SLP121 T02610206
Pressure 29.89 in
Visibility 10.0 miles
Clouds Clear
Heat Index 82 °F
Dew Point 70 °F
Humidity 74%
Rainfall 0.00 in
Snow Depth Not available.
6:30 AM 8:42 PM
Waning Crescent, 9% visible
METAR KSLN 310353Z 14007KT 10SM CLR 26/21 A2994 RMK AO2 SLP121 T02610206

10-Day Weather Forecast

Almanac

Astronomy

Jul. 30, 2016 Rise Set
Actual Time
Civil Twilight
Nautical Twilight
Astronomical Twilight
Moon
Length of Visible Light
Length of Day
Tomorrow will be .
, % of the Moon is Illuminated

Today's Extremes

State Highs State Lows

Community

WunderPhotos

Upload Photos

1,928,745 photos uploaded!

WunderBlog® & News

Nearby

Air Quality

  Air Quality AQ Index Pollutant
Not available.

Snow Depth

Station Depth Elevation

Earthquake Activity

City Distance Mag. Time & Date
Minimum magnitude displayed is 2.5.

Coastal Water Temperatures

Place Temperature

Stations

Nearby Weather Stations

Station Location Temp. Windchill Dew Point Humidity Wind Precip. Elev Updated Type
                   

Watches & Warnings

There are currently no watches in effect.